Lake Suzy, Florida
Current Conditions -  °F | °C
As of 8:53 AM on Thursday 27 Nov 2014 (Local Time) from KPGD Reporting Station
Clear Clear  
Wind Chill: 61°   Ceiling: Unl
Heat Index: 61°   Visibility: 10mi
Dew Point: 44°   Wind: 8mph
Humidity: 54%   Direction: 10°N
Pressure: 30.32"   Gusts: NA
Location:  27.0717°N, 81.9802°W
Report Text: KPGD 271353Z 01007KT 10SM CLR 16/07 A3032 RMK AO2 SLP269 T01610067
Loading
Personal Weather Stations






























Interactive Weather Map New forecast layout! Learn more

10-Day Weather Forecast

Advertisements
Track Severe Weather on mobile